sensor_id;sensor_type;location;lat;lon;timestamp;pressure;altitude;pressure_sealevel;temperature;humidity
68656;BME280;55638;51.122;13.606;2024-01-30T16:14:16;101496.47;;;-2.31;72.04
68656;BME280;55638;51.122;13.606;2024-01-30T16:15:48;101489.06;;;-1.95;71.02
68656;BME280;55638;51.122;13.606;2024-01-30T16:17:20;101482.47;;;-1.57;69.90
68656;BME280;55638;51.122;13.606;2024-01-30T16:18:52;101476.69;;;-1.20;68.65
68656;BME280;55638;51.122;13.606;2024-01-30T16:20:24;101477.06;;;-0.88;67.42
68656;BME280;55638;51.122;13.606;2024-01-30T16:21:56;101481.03;;;-0.58;66.88
68656;BME280;55638;51.122;13.606;2024-01-30T16:23:28;101475.22;;;-0.30;65.95
68656;BME280;55638;51.122;13.606;2024-01-30T16:25:00;101474.84;;;-0.09;65.23
68656;BME280;55638;51.122;13.606;2024-01-30T16:26:31;101479.81;;;0.08;64.53
68656;BME280;55638;51.122;13.606;2024-01-30T16:28:04;101477.75;;;0.24;64.11
68656;BME280;55638;51.122;13.606;2024-01-30T16:29:36;101469.50;;;0.38;63.38
68656;BME280;55638;51.122;13.606;2024-01-30T16:31:08;101471.84;;;0.53;63.03
68656;BME280;55638;51.122;13.606;2024-01-30T16:32:40;101483.16;;;0.61;62.48
68656;BME280;55638;51.122;13.606;2024-01-30T16:34:11;101477.59;;;0.74;62.34
68656;BME280;55638;51.122;13.606;2024-01-30T16:35:44;101485.28;;;0.86;61.78
68656;BME280;55638;51.122;13.606;2024-01-30T16:37:20;101482.47;;;0.95;61.89
68656;BME280;55638;51.122;13.606;2024-01-30T16:38:52;101482.50;;;0.91;61.05
68656;BME280;55638;51.122;13.606;2024-01-30T16:40:24;101471.88;;;0.91;60.89
68656;BME280;55638;51.122;13.606;2024-01-30T16:41:56;101471.84;;;0.94;60.14
68656;BME280;55638;51.122;13.606;2024-01-30T16:43:27;101474.25;;;1.04;61.10
68656;BME280;55638;51.122;13.606;2024-01-30T16:45:00;101476.16;;;0.99;59.66
68656;BME280;55638;51.122;13.606;2024-01-30T16:46:32;101480.41;;;1.06;60.53
68656;BME280;55638;51.122;13.606;2024-01-30T16:48:05;101483.06;;;1.08;60.47
68656;BME280;55638;51.122;13.606;2024-01-30T16:49:37;101474.97;;;1.13;59.94
68656;BME280;55638;51.122;13.606;2024-01-30T16:51:11;101485.38;;;1.20;60.25
68656;BME280;55638;51.122;13.606;2024-01-30T16:52:43;101476.56;;;1.20;60.18
68656;BME280;55638;51.122;13.606;2024-01-30T16:54:15;101479.13;;;1.24;60.24
68656;BME280;55638;51.122;13.606;2024-01-30T16:55:49;101477.41;;;1.22;59.65
68656;BME280;55638;51.122;13.606;2024-01-30T16:57:21;101486.19;;;1.24;59.61
68656;BME280;55638;51.122;13.606;2024-01-30T16:58:53;101487.97;;;1.23;59.51
68656;BME280;55638;51.122;13.606;2024-01-30T17:00:31;101493.28;;;1.25;59.97
68656;BME280;55638;51.122;13.606;2024-01-30T17:02:07;101489.75;;;1.24;59.59
68656;BME280;55638;51.122;13.606;2024-01-30T17:03:41;101487.09;;;1.23;59.74
68656;BME280;55638;51.122;13.606;2024-01-30T17:05:16;101484.31;;;1.29;59.37
68656;BME280;55638;51.122;13.606;2024-01-30T17:07:03;101488.78;;;1.27;59.42
68656;BME280;55638;51.122;13.606;2024-01-30T17:08:36;101486.03;;;1.30;59.47
68656;BME280;55638;51.122;13.606;2024-01-30T17:10:10;101495.94;;;1.25;59.16
68656;BME280;55638;51.122;13.606;2024-01-30T17:11:42;101492.34;;;1.26;59.39
68656;BME280;55638;51.122;13.606;2024-01-30T17:13:19;101491.56;;;1.22;59.22
68656;BME280;55638;51.122;13.606;2024-01-30T17:14:53;101493.38;;;1.20;59.21
68656;BME280;55638;51.122;13.606;2024-01-30T17:16:25;101498.78;;;1.16;59.54
68656;BME280;55638;51.122;13.606;2024-01-30T17:18:00;101499.66;;;1.18;59.22
68656;BME280;55638;51.122;13.606;2024-01-30T17:19:32;101499.47;;;1.24;59.14
68656;BME280;55638;51.122;13.606;2024-01-30T17:21:04;101500.38;;;1.24;58.91
68656;BME280;55638;51.122;13.606;2024-01-30T17:22:37;101502.91;;;1.29;59.24
68656;BME280;55638;51.122;13.606;2024-01-30T17:24:13;101485.31;;;1.23;58.98
68656;BME280;55638;51.122;13.606;2024-01-30T17:25:49;101490.63;;;1.25;59.24
68656;BME280;55638;51.122;13.606;2024-01-30T17:27:23;101490.63;;;1.25;59.13
68656;BME280;55638;51.122;13.606;2024-01-30T17:28:55;101485.38;;;1.22;59.12
68656;BME280;55638;51.122;13.606;2024-01-30T17:30:30;101485.53;;;1.14;59.17
68656;BME280;55638;51.122;13.606;2024-01-30T17:32:03;101492.56;;;1.17;59.15
68656;BME280;55638;51.122;13.606;2024-01-30T17:33:39;101491.47;;;1.25;59.25
68656;BME280;55638;51.122;13.606;2024-01-30T17:35:17;101498.50;;;1.28;58.97
68656;BME280;55638;51.122;13.606;2024-01-30T17:36:50;101494.16;;;1.24;59.11
68656;BME280;55638;51.122;13.606;2024-01-30T17:38:22;101497.75;;;1.23;58.91
68656;BME280;55638;51.122;13.606;2024-01-30T17:39:56;101498.59;;;1.23;58.98
68656;BME280;55638;51.122;13.606;2024-01-30T17:41:33;101503.19;;;1.17;59.06
68656;BME280;55638;51.122;13.606;2024-01-30T17:43:07;101507.53;;;1.21;59.08
68656;BME280;55638;51.122;13.606;2024-01-30T17:44:40;101505.75;;;1.21;58.94
68656;BME280;55638;51.122;13.606;2024-01-30T17:46:16;101507.41;;;1.25;59.05
68656;BME280;55638;51.122;13.606;2024-01-30T17:47:52;101510.88;;;1.29;59.10
68656;BME280;55638;51.122;13.606;2024-01-30T17:49:24;101512.66;;;1.28;58.85
68656;BME280;55638;51.122;13.606;2024-01-30T17:50:57;101503.91;;;1.23;59.12
68656;BME280;55638;51.122;13.606;2024-01-30T17:52:29;101511.00;;;1.23;59.09
68656;BME280;55638;51.122;13.606;2024-01-30T17:54:01;101506.63;;;1.20;59.15
68656;BME280;55638;51.122;13.606;2024-01-30T17:55:33;101525.28;;;1.19;59.06
68656;BME280;55638;51.122;13.606;2024-01-30T17:57:05;101522.56;;;1.22;59.07
68656;BME280;55638;51.122;13.606;2024-01-30T17:58:37;101523.47;;;1.21;59.03
68656;BME280;55638;51.122;13.606;2024-01-30T18:00:10;101505.81;;;1.18;58.91
68656;BME280;55638;51.122;13.606;2024-01-30T18:01:46;101519.06;;;1.20;59.11
68656;BME280;55638;51.122;13.606;2024-01-30T18:03:19;101512.03;;;1.17;59.04
68656;BME280;55638;51.122;13.606;2024-01-30T18:04:51;101512.06;;;1.16;58.96
68656;BME280;55638;51.122;13.606;2024-01-30T18:06:23;101512.03;;;1.17;59.13
68656;BME280;55638;51.122;13.606;2024-01-30T18:07:55;101512.84;;;1.21;58.87
68656;BME280;55638;51.122;13.606;2024-01-30T18:09:27;101502.31;;;1.16;59.10
68656;BME280;55638;51.122;13.606;2024-01-30T18:10:59;101506.75;;;1.16;59.00
68656;BME280;55638;51.122;13.606;2024-01-30T18:12:31;101510.41;;;1.12;59.16
68656;BME280;55638;51.122;13.606;2024-01-30T18:14:03;101507.78;;;1.10;59.18
68656;BME280;55638;51.122;13.606;2024-01-30T18:15:35;101508.63;;;1.12;59.23
68656;BME280;55638;51.122;13.606;2024-01-30T18:17:07;101507.81;;;1.08;59.34
68656;BME280;55638;51.122;13.606;2024-01-30T18:18:39;101512.22;;;1.09;59.34
68656;BME280;55638;51.122;13.606;2024-01-30T18:20:11;101512.16;;;1.13;59.33
68656;BME280;55638;51.122;13.606;2024-01-30T18:21:43;101503.31;;;1.11;59.13
68656;BME280;55638;51.122;13.606;2024-01-30T18:23:15;101506.97;;;1.06;59.28
68656;BME280;55638;51.122;13.606;2024-01-30T18:24:48;101501.66;;;1.06;59.27
68656;BME280;55638;51.122;13.606;2024-01-30T18:26:20;101512.28;;;1.06;59.50
68656;BME280;55638;51.122;13.606;2024-01-30T18:27:52;101507.88;;;1.05;59.48
68656;BME280;55638;51.122;13.606;2024-01-30T18:29:24;101509.69;;;1.05;59.50
68656;BME280;55638;51.122;13.606;2024-01-30T18:30:58;101500.97;;;0.98;59.42
68656;BME280;55638;51.122;13.606;2024-01-30T18:32:30;101509.75;;;1.02;59.57
68656;BME280;55638;51.122;13.606;2024-01-30T18:34:03;101516.72;;;1.06;59.58
68656;BME280;55638;51.122;13.606;2024-01-30T18:35:35;101518.50;;;1.05;59.65
68656;BME280;55638;51.122;13.606;2024-01-30T18:37:07;101515.84;;;1.05;59.52
68656;BME280;55638;51.122;13.606;2024-01-30T18:38:39;101522.06;;;1.04;59.63
68656;BME280;55638;51.122;13.606;2024-01-30T18:40:12;101517.66;;;1.03;59.46
68656;BME280;55638;51.122;13.606;2024-01-30T18:41:44;101519.41;;;1.04;59.57
68656;BME280;55638;51.122;13.606;2024-01-30T18:43:16;101520.25;;;1.06;59.54
68656;BME280;55638;51.122;13.606;2024-01-30T18:44:49;101516.66;;;1.09;59.44
68656;BME280;55638;51.122;13.606;2024-01-30T18:46:21;101525.44;;;1.13;59.47
68656;BME280;55638;51.122;13.606;2024-01-30T18:47:55;101535.06;;;1.17;59.37
68656;BME280;55638;51.122;13.606;2024-01-30T18:49:27;101534.19;;;1.18;59.45
68656;BME280;55638;51.122;13.606;2024-01-30T18:50:59;101542.09;;;1.19;59.41
68656;BME280;55638;51.122;13.606;2024-01-30T18:52:31;101539.44;;;1.19;59.33
68656;BME280;55638;51.122;13.606;2024-01-30T18:54:03;101530.59;;;1.19;59.30
68656;BME280;55638;51.122;13.606;2024-01-30T18:55:35;101531.53;;;1.18;59.44
68656;BME280;55638;51.122;13.606;2024-01-30T18:57:07;101537.66;;;1.20;59.45
68656;BME280;55638;51.122;13.606;2024-01-30T18:58:39;101527.94;;;1.19;59.55
68656;BME280;55638;51.122;13.606;2024-01-30T19:00:11;101514.66;;;1.19;59.37
68656;BME280;55638;51.122;13.606;2024-01-30T19:01:44;101526.22;;;1.16;59.59
68656;BME280;55638;51.122;13.606;2024-01-30T19:03:16;101531.66;;;1.10;59.51
68656;BME280;55638;51.122;13.606;2024-01-30T19:04:49;101522.91;;;1.06;59.47
68656;BME280;55638;51.122;13.606;2024-01-30T19:06:24;101531.72;;;1.08;59.83
68656;BME280;55638;51.122;13.606;2024-01-30T19:07:56;101528.16;;;1.09;59.66
68656;BME280;55638;51.122;13.606;2024-01-30T19:09:27;101526.34;;;1.12;59.78
68656;BME280;55638;51.122;13.606;2024-01-30T19:10:59;101530.75;;;1.13;59.62
68656;BME280;55638;51.122;13.606;2024-01-30T19:12:31;101526.41;;;1.08;59.58
68656;BME280;55638;51.122;13.606;2024-01-30T19:14:03;101517.56;;;1.08;59.94
68656;BME280;55638;51.122;13.606;2024-01-30T19:15:35;101527.22;;;1.12;59.72
68656;BME280;55638;51.122;13.606;2024-01-30T19:17:07;101536.84;;;1.18;59.62
68656;BME280;55638;51.122;13.606;2024-01-30T19:18:39;101547.38;;;1.21;59.55
68656;BME280;55638;51.122;13.606;2024-01-30T19:20:11;101546.41;;;1.23;59.54
68656;BME280;55638;51.122;13.606;2024-01-30T19:21:44;101554.38;;;1.25;59.57
68656;BME280;55638;51.122;13.606;2024-01-30T19:23:17;101548.25;;;1.21;59.33
68656;BME280;55638;51.122;13.606;2024-01-30T19:24:50;101533.91;;;1.28;59.17
68656;BME280;55638;51.122;13.606;2024-01-30T19:26:22;101528.75;;;1.22;59.22
68656;BME280;55638;51.122;13.606;2024-01-30T19:27:54;101543.84;;;1.20;59.38
68656;BME280;55638;51.122;13.606;2024-01-30T19:29:29;101545.69;;;1.17;59.47
68656;BME280;55638;51.122;13.606;2024-01-30T19:31:02;101550.13;;;1.18;59.32
68656;BME280;55638;51.122;13.606;2024-01-30T19:32:35;101537.69;;;1.18;59.61
68656;BME280;55638;51.122;13.606;2024-01-30T19:34:07;101541.25;;;1.17;59.42
68656;BME280;55638;51.122;13.606;2024-01-30T19:35:39;101550.94;;;1.20;59.62
68656;BME280;55638;51.122;13.606;2024-01-30T19:37:11;101549.13;;;1.22;59.69
68656;BME280;55638;51.122;13.606;2024-01-30T19:38:43;101545.75;;;1.14;59.52
68656;BME280;55638;51.122;13.606;2024-01-30T19:40:15;101542.28;;;1.12;59.64
68656;BME280;55638;51.122;13.606;2024-01-30T19:41:47;101558.16;;;1.15;59.70
68656;BME280;55638;51.122;13.606;2024-01-30T19:43:19;101567.00;;;1.14;59.83
68656;BME280;55638;51.122;13.606;2024-01-30T19:44:51;101559.91;;;1.14;59.68
68656;BME280;55638;51.122;13.606;2024-01-30T19:46:23;101559.81;;;1.19;59.66
68656;BME280;55638;51.122;13.606;2024-01-30T19:47:55;101570.31;;;1.23;59.58
68656;BME280;55638;51.122;13.606;2024-01-30T19:49:27;101562.34;;;1.25;59.68
68656;BME280;55638;51.122;13.606;2024-01-30T19:51:00;101553.50;;;1.24;59.50
68656;BME280;55638;51.122;13.606;2024-01-30T19:52:32;101544.56;;;1.27;59.68
68656;BME280;55638;51.122;13.606;2024-01-30T19:54:04;101567.53;;;1.29;59.50
68656;BME280;55638;51.122;13.606;2024-01-30T19:55:36;101568.41;;;1.30;59.50
68656;BME280;55638;51.122;13.606;2024-01-30T19:57:08;101571.03;;;1.31;59.41
68656;BME280;55638;51.122;13.606;2024-01-30T19:58:41;101559.50;;;1.32;59.50
68656;BME280;55638;51.122;13.606;2024-01-30T20:00:13;101570.13;;;1.32;59.51
68656;BME280;55638;51.122;13.606;2024-01-30T20:01:46;101577.09;;;1.37;59.73
68656;BME280;55638;51.122;13.606;2024-01-30T20:03:18;101571.84;;;1.35;59.66
68656;BME280;55638;51.122;13.606;2024-01-30T20:04:49;101563.03;;;1.33;59.55
68656;BME280;55638;51.122;13.606;2024-01-30T20:06:22;101565.69;;;1.33;59.74
68656;BME280;55638;51.122;13.606;2024-01-30T20:07:53;101566.47;;;1.37;59.57
68656;BME280;55638;51.122;13.606;2024-01-30T20:09:26;101569.97;;;1.39;59.63
68656;BME280;55638;51.122;13.606;2024-01-30T20:10:58;101579.69;;;1.40;59.76
68656;BME280;55638;51.122;13.606;2024-01-30T20:12:30;101582.34;;;1.41;59.57
68656;BME280;55638;51.122;13.606;2024-01-30T20:14:02;101568.19;;;1.41;59.54
68656;BME280;55638;51.122;13.606;2024-01-30T20:15:34;101576.16;;;1.41;59.63
68656;BME280;55638;51.122;13.606;2024-01-30T20:17:07;101575.19;;;1.43;59.50
68656;BME280;55638;51.122;13.606;2024-01-30T20:18:39;101583.13;;;1.45;59.60
68656;BME280;55638;51.122;13.606;2024-01-30T20:20:11;101591.97;;;1.45;59.59
68656;BME280;55638;51.122;13.606;2024-01-30T20:21:48;101580.41;;;1.48;59.40
68656;BME280;55638;51.122;13.606;2024-01-30T20:23:20;101585.72;;;1.48;59.50
68656;BME280;55638;51.122;13.606;2024-01-30T20:24:52;101587.50;;;1.47;59.63
68656;BME280;55638;51.122;13.606;2024-01-30T20:26:26;101590.16;;;1.47;59.53
68656;BME280;55638;51.122;13.606;2024-01-30T20:27:58;101581.34;;;1.45;59.26
68656;BME280;55638;51.122;13.606;2024-01-30T20:29:31;101587.66;;;1.41;59.29
68656;BME280;55638;51.122;13.606;2024-01-30T20:31:03;101580.50;;;1.43;59.47
68656;BME280;55638;51.122;13.606;2024-01-30T20:32:35;101577.84;;;1.43;59.30
68656;BME280;55638;51.122;13.606;2024-01-30T20:34:07;101569.88;;;1.43;59.29
68656;BME280;55638;51.122;13.606;2024-01-30T20:35:39;101575.19;;;1.43;59.25
68656;BME280;55638;51.122;13.606;2024-01-30T20:37:11;101579.59;;;1.44;59.32
68656;BME280;55638;51.122;13.606;2024-01-30T20:38:43;101583.13;;;1.45;59.41
68656;BME280;55638;51.122;13.606;2024-01-30T20:40:16;101582.25;;;1.44;59.48
68656;BME280;55638;51.122;13.606;2024-01-30T20:41:49;101592.91;;;1.44;59.49
68656;BME280;55638;51.122;13.606;2024-01-30T20:43:22;101592.91;;;1.44;59.30
68656;BME280;55638;51.122;13.606;2024-01-30T20:44:54;101591.13;;;1.43;59.33
68656;BME280;55638;51.122;13.606;2024-01-30T20:46:26;101596.44;;;1.43;59.35
68656;BME280;55638;51.122;13.606;2024-01-30T20:47:58;101589.38;;;1.42;59.32
68656;BME280;55638;51.122;13.606;2024-01-30T20:49:30;101590.31;;;1.41;59.58
68656;BME280;55638;51.122;13.606;2024-01-30T20:51:02;101590.31;;;1.41;59.39
68656;BME280;55638;51.122;13.606;2024-01-30T20:52:34;101586.78;;;1.41;59.33
68656;BME280;55638;51.122;13.606;2024-01-30T20:54:06;101592.97;;;1.41;59.37
68656;BME280;55638;51.122;13.606;2024-01-30T20:55:38;101592.03;;;1.42;59.41
68656;BME280;55638;51.122;13.606;2024-01-30T20:57:10;101594.75;;;1.41;59.42
68656;BME280;55638;51.122;13.606;2024-01-30T20:58:42;101601.84;;;1.40;59.59
68656;BME280;55638;51.122;13.606;2024-01-30T21:00:14;101591.28;;;1.37;59.57
68656;BME280;55638;51.122;13.606;2024-01-30T21:01:46;101590.38;;;1.38;59.78
68656;BME280;55638;51.122;13.606;2024-01-30T21:03:18;101585.06;;;1.37;59.77
68656;BME280;55638;51.122;13.606;2024-01-30T21:04:50;101593.03;;;1.37;59.71
68656;BME280;55638;51.122;13.606;2024-01-30T21:06:23;101588.63;;;1.37;59.65
68656;BME280;55638;51.122;13.606;2024-01-30T21:07:55;101582.47;;;1.35;59.69
68656;BME280;55638;51.122;13.606;2024-01-30T21:09:27;101579.03;;;1.30;59.54
68656;BME280;55638;51.122;13.606;2024-01-30T21:10:59;101582.47;;;1.35;59.72
68656;BME280;55638;51.122;13.606;2024-01-30T21:12:33;101578.09;;;1.32;59.59
68656;BME280;55638;51.122;13.606;2024-01-30T21:14:05;101585.25;;;1.30;59.82
68656;BME280;55638;51.122;13.606;2024-01-30T21:15:37;101581.72;;;1.28;59.80
68656;BME280;55638;51.122;13.606;2024-01-30T21:17:09;101594.00;;;1.34;59.68
68656;BME280;55638;51.122;13.606;2024-01-30T21:18:41;101588.66;;;1.36;59.55
68656;BME280;55638;51.122;13.606;2024-01-30T21:20:15;101590.44;;;1.35;59.54
68656;BME280;55638;51.122;13.606;2024-01-30T21:21:47;101590.50;;;1.32;59.51
68656;BME280;55638;51.122;13.606;2024-01-30T21:23:19;101591.44;;;1.31;59.57
68656;BME280;55638;51.122;13.606;2024-01-30T21:24:51;101589.66;;;1.30;59.58
68656;BME280;55638;51.122;13.606;2024-01-30T21:26:23;101588.78;;;1.31;59.45
68656;BME280;55638;51.122;13.606;2024-01-30T21:27:55;101587.91;;;1.30;59.45
68656;BME280;55638;51.122;13.606;2024-01-30T21:29:27;101592.28;;;1.31;59.40
68656;BME280;55638;51.122;13.606;2024-01-30T21:30:59;101586.97;;;1.31;59.45
68656;BME280;55638;51.122;13.606;2024-01-30T21:32:32;101586.13;;;1.29;59.66
68656;BME280;55638;51.122;13.606;2024-01-30T21:34:04;101585.31;;;1.27;59.61
68656;BME280;55638;51.122;13.606;2024-01-30T21:35:36;101594.16;;;1.28;59.65
68656;BME280;55638;51.122;13.606;2024-01-30T21:37:08;101602.94;;;1.30;59.64
68656;BME280;55638;51.122;13.606;2024-01-30T21:38:40;101600.34;;;1.27;59.76
68656;BME280;55638;51.122;13.606;2024-01-30T21:40:12;101595.94;;;1.26;59.75
68656;BME280;55638;51.122;13.606;2024-01-30T21:41:46;101601.19;;;1.29;59.69
68656;BME280;55638;51.122;13.606;2024-01-30T21:43:18;101610.91;;;1.31;59.73
68656;BME280;55638;51.122;13.606;2024-01-30T21:44:50;101603.78;;;1.32;59.67
68656;BME280;55638;51.122;13.606;2024-01-30T21:46:27;101604.66;;;1.32;59.89
68656;BME280;55638;51.122;13.606;2024-01-30T21:47:59;101602.94;;;1.30;59.77
68656;BME280;55638;51.122;13.606;2024-01-30T21:49:31;101602.06;;;1.31;59.81
68656;BME280;55638;51.122;13.606;2024-01-30T21:51:03;101602.91;;;1.31;59.79
68656;BME280;55638;51.122;13.606;2024-01-30T21:52:35;101588.00;;;1.26;59.83
68656;BME280;55638;51.122;13.606;2024-01-30T21:54:08;101592.38;;;1.28;59.99
68656;BME280;55638;51.122;13.606;2024-01-30T21:55:40;101600.28;;;1.30;59.83
68656;BME280;55638;51.122;13.606;2024-01-30T21:57:12;101610.91;;;1.30;59.78
68656;BME280;55638;51.122;13.606;2024-01-30T21:58:44;101602.06;;;1.31;59.86
68656;BME280;55638;51.122;13.606;2024-01-30T22:00:17;101604.72;;;1.29;59.88
68656;BME280;55638;51.122;13.606;2024-01-30T22:01:49;101607.38;;;1.31;59.82
68656;BME280;55638;51.122;13.606;2024-01-30T22:03:21;101604.72;;;1.31;59.82
68656;BME280;55638;51.122;13.606;2024-01-30T22:04:53;101601.19;;;1.30;59.96
68656;BME280;55638;51.122;13.606;2024-01-30T22:06:26;101603.84;;;1.30;60.27
68656;BME280;55638;51.122;13.606;2024-01-30T22:07:58;101609.09;;;1.32;60.14
68656;BME280;55638;51.122;13.606;2024-01-30T22:09:30;101609.06;;;1.33;60.08
68656;BME280;55638;51.122;13.606;2024-01-30T22:11:02;101602.91;;;1.31;59.90
68656;BME280;55638;51.122;13.606;2024-01-30T22:12:37;101598.47;;;1.32;60.01
68656;BME280;55638;51.122;13.606;2024-01-30T22:14:10;101600.22;;;1.33;60.07
68656;BME280;55638;51.122;13.606;2024-01-30T22:15:41;101607.31;;;1.32;60.24
68656;BME280;55638;51.122;13.606;2024-01-30T22:17:13;101596.75;;;1.31;60.24
68656;BME280;55638;51.122;13.606;2024-01-30T22:18:45;101602.00;;;1.34;60.29
68656;BME280;55638;51.122;13.606;2024-01-30T22:20:17;101599.41;;;1.31;60.31
68656;BME280;55638;51.122;13.606;2024-01-30T22:21:49;101599.34;;;1.32;60.19
68656;BME280;55638;51.122;13.606;2024-01-30T22:23:21;101601.06;;;1.35;60.33
68656;BME280;55638;51.122;13.606;2024-01-30T22:24:53;101602.84;;;1.35;60.23
68656;BME280;55638;51.122;13.606;2024-01-30T22:26:25;101617.94;;;1.34;60.21
68656;BME280;55638;51.122;13.606;2024-01-30T22:27:57;101602.00;;;1.34;60.34
68656;BME280;55638;51.122;13.606;2024-01-30T22:29:29;101604.56;;;1.37;60.26
68656;BME280;55638;51.122;13.606;2024-01-30T22:31:02;101601.00;;;1.38;60.30
68656;BME280;55638;51.122;13.606;2024-01-30T22:32:33;101607.22;;;1.37;60.10
68656;BME280;55638;51.122;13.606;2024-01-30T22:34:07;101609.84;;;1.39;60.11
68656;BME280;55638;51.122;13.606;2024-01-30T22:35:39;101614.22;;;1.40;60.21
68656;BME280;55638;51.122;13.606;2024-01-30T22:37:11;101611.63;;;1.38;60.14
68656;BME280;55638;51.122;13.606;2024-01-30T22:38:43;101612.50;;;1.39;60.09
68656;BME280;55638;51.122;13.606;2024-01-30T22:40:15;101609.88;;;1.37;60.22
68656;BME280;55638;51.122;13.606;2024-01-30T22:41:47;101605.44;;;1.38;60.19
68656;BME280;55638;51.122;13.606;2024-01-30T22:43:19;101608.97;;;1.38;60.20
68656;BME280;55638;51.122;13.606;2024-01-30T22:44:51;101617.84;;;1.37;60.25
68656;BME280;55638;51.122;13.606;2024-01-30T22:46:23;101620.53;;;1.37;60.14
68656;BME280;55638;51.122;13.606;2024-01-30T22:47:55;101611.66;;;1.37;60.14
68656;BME280;55638;51.122;13.606;2024-01-30T22:49:27;101612.53;;;1.37;60.19
68656;BME280;55638;51.122;13.606;2024-01-30T22:50:59;101618.72;;;1.38;60.43
68656;BME280;55638;51.122;13.606;2024-01-30T22:52:31;101623.19;;;1.37;60.27
68656;BME280;55638;51.122;13.606;2024-01-30T22:54:03;101617.84;;;1.37;60.35
68656;BME280;55638;51.122;13.606;2024-01-30T22:55:35;101616.09;;;1.36;60.28
68656;BME280;55638;51.122;13.606;2024-01-30T22:57:07;101616.94;;;1.38;60.43
68656;BME280;55638;51.122;13.606;2024-01-30T22:58:39;101623.13;;;1.39;60.24
68656;BME280;55638;51.122;13.606;2024-01-30T23:00:11;101617.84;;;1.37;60.53
68656;BME280;55638;51.122;13.606;2024-01-30T23:01:46;101620.53;;;1.37;60.38
68656;BME280;55638;51.122;13.606;2024-01-30T23:03:19;101616.06;;;1.38;60.71
68656;BME280;55638;51.122;13.606;2024-01-30T23:04:51;101621.34;;;1.39;60.63
68656;BME280;55638;51.122;13.606;2024-01-30T23:06:23;101614.28;;;1.38;60.79
68656;BME280;55638;51.122;13.606;2024-01-30T23:07:55;101622.25;;;1.38;60.89
68656;BME280;55638;51.122;13.606;2024-01-30T23:09:27;101624.84;;;1.41;60.99
68656;BME280;55638;51.122;13.606;2024-01-30T23:10:59;101619.47;;;1.44;60.83
68656;BME280;55638;51.122;13.606;2024-01-30T23:12:31;101622.06;;;1.47;60.93
68656;BME280;55638;51.122;13.606;2024-01-30T23:14:03;101623.84;;;1.47;60.73
68656;BME280;55638;51.122;13.606;2024-01-30T23:15:35;101619.31;;;1.50;60.94
68656;BME280;55638;51.122;13.606;2024-01-30T23:17:07;101625.53;;;1.49;60.93
68656;BME280;55638;51.122;13.606;2024-01-30T23:18:40;101626.31;;;1.53;61.25
68656;BME280;55638;51.122;13.606;2024-01-30T23:20:12;101628.06;;;1.55;61.41
68656;BME280;55638;51.122;13.606;2024-01-30T23:21:45;101621.75;;;1.60;61.33
68656;BME280;55638;51.122;13.606;2024-01-30T23:23:17;101624.25;;;1.66;61.31
68656;BME280;55638;51.122;13.606;2024-01-30T23:24:50;101630.44;;;1.68;61.29
68656;BME280;55638;51.122;13.606;2024-01-30T23:26:22;101632.09;;;1.72;61.14
68656;BME280;55638;51.122;13.606;2024-01-30T23:27:53;101625.81;;;1.76;61.06
68656;BME280;55638;51.122;13.606;2024-01-30T23:29:25;101620.41;;;1.79;60.88
68656;BME280;55638;51.122;13.606;2024-01-30T23:30:57;101624.75;;;1.83;60.89
68656;BME280;55638;51.122;13.606;2024-01-30T23:32:29;101617.66;;;1.84;60.84
68656;BME280;55638;51.122;13.606;2024-01-30T23:34:13;101624.69;;;1.86;60.63
68656;BME280;55638;51.122;13.606;2024-01-30T23:35:45;101628.13;;;1.90;60.81
68656;BME280;55638;51.122;13.606;2024-01-30T23:37:17;101623.63;;;1.92;60.77
68656;BME280;55638;51.122;13.606;2024-01-30T23:38:50;101630.66;;;1.94;60.62
68656;BME280;55638;51.122;13.606;2024-01-30T23:40:22;101630.59;;;1.97;60.66
68656;BME280;55638;51.122;13.606;2024-01-30T23:41:54;101631.47;;;1.98;60.42
68656;BME280;55638;51.122;13.606;2024-01-30T23:43:26;101631.44;;;1.99;60.48
68656;BME280;55638;51.122;13.606;2024-01-30T23:45:01;101632.38;;;1.97;60.12
68656;BME280;55638;51.122;13.606;2024-01-30T23:46:33;101624.34;;;1.98;60.28
68656;BME280;55638;51.122;13.606;2024-01-30T23:48:05;101620.75;;;2.01;60.14
68656;BME280;55638;51.122;13.606;2024-01-30T23:49:37;101623.47;;;1.99;60.10
68656;BME280;55638;51.122;13.606;2024-01-30T23:51:10;101627.94;;;1.97;59.87
68656;BME280;55638;51.122;13.606;2024-01-30T23:52:45;101630.59;;;1.97;60.01
68656;BME280;55638;51.122;13.606;2024-01-30T23:54:18;101635.06;;;1.97;60.02
68656;BME280;55638;51.122;13.606;2024-01-30T23:55:50;101632.34;;;1.98;60.05
68656;BME280;55638;51.122;13.606;2024-01-30T23:57:21;101633.25;;;1.97;59.72
68656;BME280;55638;51.122;13.606;2024-01-30T23:58:54;101634.13;;;1.98;59.87
